ΕΜΥ, Εθνική Μετεωρολογική Υπηρεσία - Δελτία Καιρού, Προγνώσεις

ΑΕΡΟΝΑΥΤΙΛΙΑ

GREEK AIRPORTS CODES

TAF LGIO 300200Z 3003/3012 35005KT 9999 FEW025 PROB40 3003/3007 5000 BR SCT010 PROB30 3003/3007 0400 FG BKN002=

EUROPEAN AIRPORTS CODES